createdAt,value
2018-03-25T00:00:04.505Z,6.13
2018-03-25T00:02:09.553Z,6.30
2018-03-25T00:04:12.698Z,5.97
2018-03-25T00:06:15.840Z,6.53
2018-03-25T00:08:19.300Z,6.07
2018-03-25T00:10:23.204Z,5.97
2018-03-25T00:12:26.352Z,6.65
2018-03-25T00:14:29.612Z,6.83
2018-03-25T00:16:32.768Z,6.17
2018-03-25T00:18:35.936Z,6.40
2018-03-25T00:20:39.072Z,6.03
2018-03-25T00:22:42.485Z,7.00
2018-03-25T00:24:45.631Z,6.65
2018-03-25T00:26:49.906Z,6.32
2018-03-25T00:28:53.839Z,6.07
2018-03-25T00:30:57.853Z,6.80
2018-03-25T00:33:01.765Z,6.32
2018-03-25T00:35:04.962Z,6.07
2018-03-25T00:37:08.137Z,6.60
2018-03-25T00:39:11.310Z,6.70
2018-03-25T00:41:15.256Z,6.53
2018-03-25T00:43:18.400Z,7.17
2018-03-25T00:45:21.552Z,6.60
2018-03-25T00:47:25.495Z,6.67
2018-03-25T00:49:28.642Z,6.10
2018-03-25T00:51:32.204Z,6.40
2018-03-25T00:53:36.146Z,6.60
2018-03-25T00:55:39.289Z,6.40
2018-03-25T00:57:42.436Z,6.63
2018-03-25T00:59:46.374Z,6.20
2018-03-25T01:01:51.524Z,6.40
2018-03-25T01:03:55.432Z,6.53
2018-03-25T01:05:58.604Z,6.23
2018-03-25T01:08:01.765Z,6.83
2018-03-25T01:10:05.996Z,6.50
2018-03-25T01:12:09.327Z,6.03
2018-03-25T01:14:12.468Z,6.80
2018-03-25T01:16:15.609Z,6.33
2018-03-25T01:18:18.777Z,6.20
2018-03-25T01:20:21.937Z,6.23
2018-03-25T01:22:26.133Z,6.10
2018-03-25T01:24:29.275Z,6.20
2018-03-25T01:26:33.185Z,6.50
2018-03-25T01:28:36.357Z,6.70
2018-03-25T01:30:40.255Z,6.37
2018-03-25T01:32:43.440Z,6.60
2018-03-25T01:34:47.392Z,6.37
2018-03-25T01:36:50.557Z,6.03
2018-03-25T01:38:54.485Z,5.90
2018-03-25T01:40:59.570Z,6.77
2018-03-25T01:43:03.898Z,6.50
2018-03-25T01:45:08.676Z,5.93
2018-03-25T01:47:13.999Z,6.32
2018-03-25T01:49:19.143Z,6.37
2018-03-25T01:51:22.419Z,6.20
2018-03-25T01:53:26.344Z,6.17
2018-03-25T01:55:29.516Z,6.05
2018-03-25T01:57:34.200Z,6.45
2018-03-25T01:59:39.829Z,6.43
2018-03-25T02:01:44.577Z,6.77
2018-03-25T02:03:49.498Z,6.12
2018-03-25T02:05:54.022Z,6.05
2018-03-25T02:07:57.283Z,6.75
2018-03-25T02:10:00.476Z,6.33
2018-03-25T02:12:03.623Z,6.50
2018-03-25T02:14:06.779Z,6.27
2018-03-25T02:16:10.204Z,6.33
2018-03-25T02:18:13.384Z,6.20
2018-03-25T02:20:16.544Z,6.63
2018-03-25T02:22:19.714Z,5.93
2018-03-25T02:24:22.860Z,7.17
2018-03-25T02:26:26.032Z,6.93
2018-03-25T02:28:29.168Z,6.03
2018-03-25T02:30:32.344Z,6.90
2018-03-25T02:32:35.537Z,6.10
2018-03-25T02:34:38.844Z,6.43
2018-03-25T02:36:42.752Z,5.93
2018-03-25T02:38:46.700Z,6.37
2018-03-25T02:40:49.836Z,7.00
2018-03-25T02:42:54.914Z,6.78
2018-03-25T02:44:58.082Z,6.70
2018-03-25T02:47:01.271Z,6.93
2018-03-25T02:49:05.206Z,6.40
2018-03-25T02:51:08.400Z,6.30
2018-03-25T02:53:12.320Z,6.83
2018-03-25T02:55:16.237Z,6.33
2018-03-25T02:57:20.185Z,6.80
2018-03-25T02:59:23.341Z,6.97
2018-03-25T03:01:26.498Z,6.23
2018-03-25T03:03:29.665Z,7.07
2018-03-25T03:05:32.816Z,6.10
2018-03-25T03:07:35.969Z,6.70
2018-03-25T03:09:39.166Z,6.03
2018-03-25T03:11:42.342Z,6.83
2018-03-25T03:13:45.529Z,6.40
2018-03-25T03:15:49.450Z,6.50
2018-03-25T03:17:53.358Z,6.33
2018-03-25T03:19:56.545Z,6.77
2018-03-25T03:21:59.713Z,6.90
2018-03-25T03:24:02.882Z,7.03
2018-03-25T03:26:06.827Z,7.30
2018-03-25T03:28:10.738Z,6.18
2018-03-25T03:30:14.178Z,6.83
2018-03-25T03:32:17.326Z,6.53
2018-03-25T03:34:20.473Z,6.25
2018-03-25T03:36:24.430Z,6.97
2018-03-25T03:38:27.855Z,6.23
2018-03-25T03:40:31.012Z,6.70
2018-03-25T03:42:34.189Z,6.33
2018-03-25T03:44:37.348Z,7.20
2018-03-25T03:46:41.256Z,7.22
2018-03-25T03:48:44.437Z,6.13
2018-03-25T03:50:47.620Z,6.27
2018-03-25T03:52:50.785Z,6.60
2018-03-25T03:54:54.721Z,6.57
2018-03-25T03:56:58.655Z,6.47
2018-03-25T03:59:02.561Z,7.03
2018-03-25T04:01:08.427Z,6.73
2018-03-25T04:03:14.184Z,6.77
2018-03-25T04:05:19.002Z,6.60
2018-03-25T04:07:23.533Z,7.20
2018-03-25T04:09:27.979Z,7.15
2018-03-25T04:11:31.143Z,6.93
2018-03-25T04:13:35.058Z,6.53
2018-03-25T04:15:40.390Z,6.33
2018-03-25T04:17:45.786Z,8.00
2018-03-25T04:19:50.116Z,7.20
2018-03-25T04:21:55.462Z,7.30
2018-03-25T04:23:58.757Z,6.87
2018-03-25T04:26:03.410Z,6.65
2018-03-25T04:28:09.416Z,6.87
2018-03-25T04:30:14.182Z,6.77
2018-03-25T04:32:18.557Z,6.97
2018-03-25T04:34:24.227Z,7.23
2018-03-25T04:36:28.485Z,7.47
2018-03-25T04:38:32.257Z,7.30
2018-03-25T04:40:35.395Z,6.80
2018-03-25T04:42:41.422Z,7.80
2018-03-25T04:44:46.143Z,7.60
2018-03-25T04:46:51.190Z,7.03
2018-03-25T04:48:56.559Z,6.90
2018-03-25T04:51:00.996Z,7.45
2018-03-25T04:53:04.265Z,7.10
2018-03-25T04:55:08.196Z,6.93
2018-03-25T04:57:12.140Z,7.50
2018-03-25T04:59:15.331Z,7.67
2018-03-25T05:01:20.498Z,7.13
2018-03-25T05:03:25.200Z,7.63
2018-03-25T05:05:30.297Z,7.33
2018-03-25T05:07:35.453Z,6.70
2018-03-25T05:09:38.718Z,7.00
2018-03-25T05:11:43.369Z,7.03
2018-03-25T05:13:48.665Z,7.33
2018-03-25T05:15:53.252Z,7.40
2018-03-25T05:17:57.327Z,7.27
2018-03-25T05:20:00.481Z,7.13
2018-03-25T05:22:03.625Z,7.75
2018-03-25T05:24:08.722Z,8.02
2018-03-25T05:26:13.632Z,7.30
2018-03-25T05:28:16.929Z,7.93
2018-03-25T05:30:20.081Z,7.00
2018-03-25T05:32:23.262Z,7.07
2018-03-25T05:34:26.414Z,7.77
2018-03-25T05:36:29.566Z,7.43
2018-03-25T05:38:32.744Z,7.60
2018-03-25T05:40:35.895Z,6.97
2018-03-25T05:42:41.092Z,7.45
2018-03-25T05:44:44.744Z,7.75
2018-03-25T05:46:48.661Z,7.40
2018-03-25T05:48:51.829Z,7.20
2018-03-25T05:50:54.992Z,7.97
2018-03-25T05:52:58.194Z,7.40
2018-03-25T05:55:02.132Z,7.73
2018-03-25T05:57:05.284Z,6.90
2018-03-25T05:59:08.467Z,8.20
2018-03-25T06:01:11.642Z,7.17
2018-03-25T06:03:15.565Z,7.53
2018-03-25T06:05:20.617Z,7.37
2018-03-25T06:07:24.534Z,7.77
2018-03-25T06:09:27.784Z,7.77
2018-03-25T06:11:30.953Z,7.65
2018-03-25T06:13:34.852Z,7.93
2018-03-25T06:15:38.016Z,8.63
2018-03-25T06:17:41.171Z,8.40
2018-03-25T06:19:44.313Z,8.07
2018-03-25T06:21:47.724Z,7.73
2018-03-25T06:23:51.670Z,8.23
2018-03-25T06:25:54.812Z,8.40
2018-03-25T06:27:57.968Z,8.30
2018-03-25T06:30:01.914Z,8.30
2018-03-25T06:32:05.065Z,8.83
2018-03-25T06:34:08.970Z,8.23
2018-03-25T06:36:12.145Z,9.30
2018-03-25T06:38:15.298Z,9.17
2018-03-25T06:40:18.903Z,7.40
2018-03-25T06:42:22.048Z,10.77
2018-03-25T06:44:25.201Z,8.43
2018-03-25T06:46:28.390Z,8.20
2018-03-25T06:48:31.590Z,8.20
2018-03-25T06:50:34.741Z,7.77
2018-03-25T06:52:37.889Z,7.87
2018-03-25T06:54:42.150Z,7.68
2018-03-25T06:56:45.292Z,8.97
2018-03-25T06:58:48.431Z,8.13
2018-03-25T07:00:51.605Z,8.37
2018-03-25T07:02:54.756Z,8.43
2018-03-25T07:04:58.673Z,8.27
2018-03-25T07:07:02.617Z,8.23
2018-03-25T07:09:05.864Z,8.25
2018-03-25T07:11:09.045Z,8.23
2018-03-25T07:13:12.209Z,8.87
2018-03-25T07:15:15.394Z,8.73
2018-03-25T07:17:18.541Z,8.23
2018-03-25T07:19:22.115Z,8.73
2018-03-25T07:21:25.304Z,9.10
2018-03-25T07:23:28.482Z,8.88
2018-03-25T07:25:32.428Z,8.83
2018-03-25T07:27:35.605Z,8.43
2018-03-25T07:29:38.753Z,9.57
2018-03-25T07:31:42.792Z,8.18
2018-03-25T07:33:45.960Z,8.77
2018-03-25T07:35:49.865Z,7.77
2018-03-25T07:37:53.044Z,8.30
2018-03-25T07:39:56.228Z,8.80
2018-03-25T07:41:59.395Z,9.73
2018-03-25T07:44:03.040Z,8.68
2018-03-25T07:46:06.203Z,9.43
2018-03-25T07:48:10.934Z,9.17
2018-03-25T07:50:14.087Z,8.40
2018-03-25T07:52:18.032Z,9.13
2018-03-25T07:54:21.228Z,8.38
2018-03-25T07:56:24.413Z,8.80
2018-03-25T07:58:28.506Z,8.17
2018-03-25T08:00:31.641Z,8.27
2018-03-25T08:02:35.845Z,8.30
2018-03-25T08:04:39.031Z,8.93
2018-03-25T08:06:42.224Z,8.07
2018-03-25T08:08:45.392Z,9.53
2018-03-25T08:10:49.344Z,8.50
2018-03-25T08:12:53.499Z,8.57
2018-03-25T08:14:56.677Z,7.90
2018-03-25T08:17:00.607Z,8.93
2018-03-25T08:19:03.856Z,8.48
2018-03-25T08:21:07.060Z,8.37
2018-03-25T08:23:10.480Z,9.20
2018-03-25T08:25:13.653Z,8.67
2018-03-25T08:27:17.588Z,8.83
2018-03-25T08:29:20.772Z,8.60
2018-03-25T08:31:24.248Z,8.65
2018-03-25T08:33:27.433Z,8.33
2018-03-25T08:35:30.648Z,7.90
2018-03-25T08:37:33.856Z,9.40
2018-03-25T08:39:37.032Z,8.73
2018-03-25T08:41:40.980Z,9.30
2018-03-25T08:43:44.417Z,8.82
2018-03-25T08:45:47.592Z,8.87
2018-03-25T08:47:50.758Z,9.30
2018-03-25T08:49:53.944Z,7.83
2018-03-25T08:51:57.946Z,8.43
2018-03-25T08:54:01.130Z,7.97
2018-03-25T08:56:04.902Z,7.65
2018-03-25T08:58:08.334Z,7.97
2018-03-25T09:00:11.511Z,9.20
2018-03-25T09:02:14.783Z,8.63
2018-03-25T09:04:17.976Z,8.10
2018-03-25T09:06:21.904Z,8.10
2018-03-25T09:08:25.170Z,8.23
2018-03-25T09:10:28.349Z,8.40
2018-03-25T09:15:14.370Z,7.77
2018-03-25T09:17:21.547Z,7.47
2018-03-25T09:19:26.321Z,7.95
2018-03-25T09:21:29.505Z,7.93
2018-03-25T09:23:33.456Z,8.77
2018-03-25T09:25:36.619Z,6.93
2018-03-25T09:27:39.785Z,7.30
2018-03-25T09:29:43.368Z,7.60
2018-03-25T09:31:46.560Z,8.40
2018-03-25T09:33:50.216Z,8.37
2018-03-25T09:35:53.452Z,9.32
2018-03-25T09:37:56.679Z,9.33
2018-03-25T09:39:59.997Z,8.53
2018-03-25T09:42:04.688Z,9.07
2018-03-25T09:44:07.884Z,9.33
2018-03-25T09:46:11.301Z,9.27
2018-03-25T09:48:14.494Z,9.97
2018-03-25T09:50:18.440Z,9.13
2018-03-25T09:52:21.616Z,9.60
2018-03-25T09:54:27.314Z,9.60
2018-03-25T09:56:30.521Z,9.90
2018-03-25T09:58:33.703Z,9.37
2018-03-25T10:00:37.668Z,10.10
2018-03-25T10:02:42.792Z,10.57
2018-03-25T10:04:46.829Z,9.88
2018-03-25T10:06:50.757Z,10.33
2018-03-25T10:08:53.971Z,9.50
2018-03-25T10:10:57.188Z,9.18
2018-03-25T10:13:01.164Z,9.25
2018-03-25T10:15:04.353Z,10.20
2018-03-25T10:17:07.545Z,10.63
2018-03-25T10:19:10.754Z,10.47
2018-03-25T10:21:14.753Z,9.75
2018-03-25T10:23:18.730Z,10.93
2018-03-25T10:25:22.102Z,11.30
2018-03-25T10:27:25.288Z,10.13
2018-03-25T10:29:29.247Z,11.03
2018-03-25T10:31:32.442Z,12.13
2018-03-25T10:33:35.657Z,11.30
2018-03-25T10:35:38.840Z,10.13
2018-03-25T10:37:42.793Z,10.07
2018-03-25T10:39:45.979Z,10.47
2018-03-25T10:41:50.127Z,10.53
2018-03-25T10:43:53.330Z,10.57
2018-03-25T10:45:56.521Z,9.70
2018-03-25T10:48:00.766Z,10.43
2018-03-25T10:50:03.954Z,12.57
2018-03-25T10:52:08.065Z,11.30
2018-03-25T10:54:11.248Z,9.87
2018-03-25T10:56:14.431Z,10.13
2018-03-25T10:58:17.618Z,10.50
2018-03-25T11:00:21.591Z,11.17
2018-03-25T11:02:24.781Z,10.35
2018-03-25T11:04:28.431Z,9.80
2018-03-25T11:06:31.638Z,10.70
2018-03-25T11:08:35.715Z,10.40
2018-03-25T11:10:38.905Z,9.80
2018-03-25T11:12:42.858Z,11.25
2018-03-25T11:14:46.048Z,10.60
2018-03-25T11:16:50.193Z,10.53
2018-03-25T11:18:53.500Z,10.07
2018-03-25T11:20:56.699Z,10.63
2018-03-25T11:23:01.139Z,10.38
2018-03-25T11:25:04.344Z,10.32
2018-03-25T11:27:09.430Z,10.47
2018-03-25T11:29:12.610Z,10.83
2018-03-25T11:31:16.758Z,9.97
2018-03-25T11:33:20.043Z,10.00
2018-03-25T11:35:24.002Z,10.55
2018-03-25T11:37:29.073Z,9.55
2018-03-25T11:39:32.260Z,10.07
2018-03-25T11:41:35.457Z,10.47
2018-03-25T11:43:38.664Z,11.30
2018-03-25T11:45:41.848Z,10.18
2018-03-25T11:47:45.807Z,9.80
2018-03-25T11:49:50.450Z,9.77
2018-03-25T11:51:53.639Z,10.10
2018-03-25T11:53:57.590Z,10.23
2018-03-25T11:56:00.774Z,10.77
2018-03-25T11:58:04.738Z,10.77
2018-03-25T12:00:07.931Z,11.23
2018-03-25T12:02:11.434Z,12.90
2018-03-25T12:04:14.612Z,10.13
2018-03-25T12:06:18.572Z,10.20
2018-03-25T12:08:21.765Z,10.27
2018-03-25T12:10:25.749Z,10.37
2018-03-25T12:12:30.849Z,10.07
2018-03-25T12:14:34.803Z,10.43
2018-03-25T12:16:38.026Z,10.70
2018-03-25T12:18:41.218Z,9.37
2018-03-25T12:20:44.401Z,11.23
2018-03-25T12:22:48.684Z,10.07
2018-03-25T12:24:51.860Z,10.03
2018-03-25T12:26:55.054Z,10.03
2018-03-25T12:28:58.252Z,10.57
2018-03-25T12:31:02.316Z,9.85
2018-03-25T12:33:05.515Z,9.70
2018-03-25T12:35:10.600Z,10.57
2018-03-25T12:37:14.056Z,10.63
2018-03-25T12:39:17.473Z,12.02
2018-03-25T12:41:21.612Z,11.90
2018-03-25T12:43:25.090Z,11.47
2018-03-25T12:45:29.262Z,12.07
2018-03-25T12:47:32.631Z,12.00
2018-03-25T12:49:37.052Z,11.87
2018-03-25T12:51:40.238Z,11.50
2018-03-25T12:53:43.431Z,11.50
2018-03-25T12:55:48.448Z,16.33
2018-03-25T12:57:52.568Z,14.77
2018-03-25T12:59:55.765Z,11.30
2018-03-25T13:01:59.232Z,11.45
2018-03-25T13:04:02.449Z,11.87
2018-03-25T13:06:05.965Z,11.85
2018-03-25T13:08:09.321Z,11.27
2018-03-25T13:10:12.604Z,10.97
2018-03-25T13:12:15.805Z,11.33
2018-03-25T13:14:19.183Z,10.75
2018-03-25T13:16:23.230Z,10.93
2018-03-25T13:18:27.340Z,11.27
2018-03-25T13:20:32.414Z,10.73
2018-03-25T13:22:35.640Z,11.20
2018-03-25T13:24:39.468Z,11.45
2018-03-25T13:26:42.946Z,10.73
2018-03-25T13:28:46.954Z,10.43
2018-03-25T13:30:51.129Z,10.07
2018-03-25T13:32:54.314Z,10.57
2018-03-25T13:34:58.313Z,11.00
2018-03-25T13:37:06.753Z,10.63
2018-03-25T13:39:10.077Z,10.47
2018-03-25T13:41:14.053Z,10.20
2018-03-25T13:43:43.762Z,10.63
2018-03-25T13:46:12.675Z,10.73
2018-03-25T13:48:17.036Z,11.50
2018-03-25T13:50:20.200Z,29.07
2018-03-25T13:52:23.400Z,14.60
2018-03-25T13:54:26.603Z,10.87
2018-03-25T13:56:30.557Z,11.07
2018-03-25T13:58:33.754Z,10.88
2018-03-25T14:00:36.947Z,10.73
2018-03-25T14:02:40.897Z,10.80
2018-03-25T14:04:44.095Z,10.43
2018-03-25T14:06:47.396Z,11.05
2018-03-25T14:08:50.931Z,10.57
2018-03-25T14:10:54.129Z,9.83
2018-03-25T14:12:57.332Z,11.05
2018-03-25T14:15:02.504Z,10.57
2018-03-25T14:17:05.689Z,10.37
2018-03-25T14:19:09.648Z,9.95
2018-03-25T14:21:12.842Z,10.37
2018-03-25T14:23:16.042Z,10.07
2018-03-25T14:25:19.246Z,10.25
2018-03-25T14:27:23.585Z,10.60
2018-03-25T14:29:26.788Z,10.93
2018-03-25T14:31:30.017Z,9.48
2018-03-25T14:33:33.950Z,10.13
2018-03-25T14:35:37.195Z,10.83
2018-03-25T14:37:40.540Z,10.73
2018-03-25T14:39:44.495Z,10.83
2018-03-25T14:41:47.689Z,11.00
2018-03-25T14:43:50.878Z,10.70
2018-03-25T14:45:54.836Z,11.00
2018-03-25T14:47:58.126Z,15.93
2018-03-25T14:50:03.237Z,13.77
2018-03-25T14:52:06.429Z,13.13
2018-03-25T14:54:09.616Z,10.87
2018-03-25T14:56:12.802Z,11.00
2018-03-25T14:58:16.749Z,15.20
2018-03-25T15:00:19.933Z,28.03
2018-03-25T15:02:23.720Z,21.95
2018-03-25T15:04:27.692Z,30.40
2018-03-25T15:06:30.872Z,19.98
2018-03-25T15:08:34.840Z,19.37
2018-03-25T15:10:38.055Z,16.23
2018-03-25T15:12:41.245Z,15.87
2018-03-25T15:14:44.428Z,15.90
2018-03-25T15:16:48.378Z,16.73
2018-03-25T15:18:51.553Z,15.67
2018-03-25T15:20:54.910Z,15.63
2018-03-25T15:22:58.194Z,15.38
2018-03-25T15:25:02.171Z,15.82
2018-03-25T15:27:05.363Z,16.27
2018-03-25T15:29:08.565Z,15.57
2018-03-25T15:31:11.778Z,16.62
2018-03-25T15:33:14.992Z,16.27
2018-03-25T15:35:19.124Z,15.85
2018-03-25T15:37:28.706Z,18.00
2018-03-25T15:39:31.898Z,15.45
2018-03-25T15:41:35.087Z,14.57
2018-03-25T15:43:38.280Z,15.20
2018-03-25T15:45:41.471Z,20.73
2018-03-25T15:47:45.720Z,21.20
2018-03-25T15:49:48.903Z,30.40
2018-03-25T15:51:52.110Z,17.80
2018-03-25T15:53:55.309Z,16.62
2018-03-25T15:55:58.516Z,17.05
2018-03-25T15:58:01.711Z,15.73
2018-03-25T16:00:05.347Z,16.58
2018-03-25T16:02:08.553Z,20.37
2018-03-25T16:04:11.763Z,19.63
2018-03-25T16:06:14.944Z,15.30
2018-03-25T16:08:18.120Z,14.27
2018-03-25T16:10:21.359Z,14.57
2018-03-25T16:12:25.690Z,15.20
2018-03-25T16:14:28.876Z,14.67
2018-03-25T16:16:32.169Z,14.57
2018-03-25T16:18:36.131Z,15.98
2018-03-25T16:20:39.322Z,15.15
2018-03-25T16:22:42.506Z,14.60
2018-03-25T16:24:46.100Z,14.82
2018-03-25T16:26:49.290Z,15.27
2018-03-25T16:28:52.481Z,14.07
2018-03-25T16:30:55.675Z,15.38
2018-03-25T16:32:58.873Z,16.47
2018-03-25T16:35:02.850Z,16.17
2018-03-25T16:37:06.837Z,16.33
2018-03-25T16:39:10.033Z,15.07
2018-03-25T16:41:13.229Z,15.95
2018-03-25T16:43:17.172Z,20.60
2018-03-25T16:45:20.359Z,18.37
2018-03-25T16:47:24.622Z,19.67
2018-03-25T16:49:27.831Z,20.83
2018-03-25T16:51:31.034Z,17.58
2018-03-25T16:53:34.470Z,22.58
2018-03-25T16:55:37.661Z,21.25
2018-03-25T16:57:40.870Z,18.80
2018-03-25T16:59:44.072Z,18.27
2018-03-25T17:01:47.336Z,22.77
2018-03-25T17:03:50.524Z,18.63
2018-03-25T17:05:53.707Z,18.60
2018-03-25T17:07:56.906Z,21.02
2018-03-25T17:10:00.856Z,21.87
2018-03-25T17:12:04.048Z,20.03
2018-03-25T17:14:07.881Z,18.65
2018-03-25T17:16:11.285Z,19.13
2018-03-25T17:18:14.475Z,18.20
2018-03-25T17:20:18.636Z,16.65
2018-03-25T17:22:22.037Z,16.63
2018-03-25T17:24:25.216Z,18.13
2018-03-25T17:26:28.400Z,22.70
2018-03-25T17:28:31.589Z,19.80
2018-03-25T17:30:34.770Z,20.67
2018-03-25T17:32:37.955Z,20.80
2018-03-25T17:34:41.893Z,19.23
2018-03-25T17:36:45.840Z,16.13
2018-03-25T17:38:49.052Z,15.27
2018-03-25T17:40:52.238Z,14.43
2018-03-25T17:42:56.200Z,14.13
2018-03-25T17:44:59.379Z,13.93
2018-03-25T17:47:02.577Z,14.93
2018-03-25T17:49:06.245Z,13.87
2018-03-25T17:51:09.887Z,13.10
2018-03-25T17:53:14.584Z,15.27
2018-03-25T17:55:17.786Z,13.20
2018-03-25T17:57:20.996Z,13.10
2018-03-25T17:59:24.184Z,12.73
2018-03-25T18:01:28.225Z,13.07
2018-03-25T18:03:31.491Z,12.00
2018-03-25T18:05:34.730Z,12.50
2018-03-25T18:07:38.145Z,11.47
2018-03-25T18:09:41.500Z,12.37
2018-03-25T18:11:45.675Z,18.67
2018-03-25T18:13:49.675Z,14.85
2018-03-25T18:15:53.981Z,11.57
2018-03-25T18:17:57.262Z,10.77
2018-03-25T18:20:01.220Z,10.37
2018-03-25T18:22:04.409Z,11.60
2018-03-25T18:24:08.142Z,10.38
2018-03-25T18:26:13.059Z,10.45
2018-03-25T18:28:17.244Z,9.70
2018-03-25T18:30:20.433Z,8.40
2018-03-25T18:32:23.642Z,10.07
2018-03-25T18:34:26.941Z,9.43
2018-03-25T18:36:30.142Z,9.82
2018-03-25T18:38:33.484Z,9.47
2018-03-25T18:40:38.571Z,10.02
2018-03-25T18:42:42.421Z,10.20
2018-03-25T18:44:47.124Z,9.33
2018-03-25T18:46:51.723Z,9.27
2018-03-25T18:48:55.049Z,9.17
2018-03-25T18:50:58.656Z,9.97
2018-03-25T18:53:01.884Z,9.37
2018-03-25T18:55:05.078Z,10.00
2018-03-25T18:57:08.257Z,8.93
2018-03-25T18:59:13.460Z,9.80
2018-03-25T19:01:16.649Z,10.10
2018-03-25T19:03:19.849Z,10.43
2018-03-25T19:05:23.074Z,10.60
2018-03-25T19:07:26.272Z,9.53
2018-03-25T19:09:29.457Z,8.95
2018-03-25T19:11:34.213Z,8.48
2018-03-25T19:13:37.716Z,8.97
2018-03-25T19:15:41.252Z,8.30
2018-03-25T19:17:44.481Z,9.37
2018-03-25T19:19:48.060Z,9.60
2018-03-25T19:21:51.355Z,9.10
2018-03-25T19:23:55.382Z,9.77
2018-03-25T19:25:58.837Z,9.75
2018-03-25T19:28:02.184Z,9.10
2018-03-25T19:30:05.416Z,9.17
2018-03-25T19:32:08.773Z,9.30
2018-03-25T19:34:12.030Z,10.43
2018-03-25T19:36:16.019Z,10.53
2018-03-25T19:38:19.253Z,9.16
2018-03-25T19:40:22.462Z,9.10
2018-03-25T19:42:27.019Z,9.07
2018-03-25T19:44:31.027Z,8.13
2018-03-25T19:46:35.613Z,8.80
2018-03-25T19:48:38.829Z,9.93
2018-03-25T19:50:42.012Z,10.75
2018-03-25T19:52:45.956Z,9.77
2018-03-25T19:54:49.911Z,10.27
2018-03-25T19:56:53.786Z,9.27
2018-03-25T19:58:57.746Z,9.53
2018-03-25T20:01:00.931Z,10.67
2018-03-25T20:03:04.872Z,9.20
2018-03-25T20:05:08.048Z,9.97
2018-03-25T20:07:12.123Z,10.70
2018-03-25T20:09:15.659Z,11.73
2018-03-25T20:11:19.655Z,11.80
2018-03-25T20:13:22.873Z,11.55
2018-03-25T20:15:26.071Z,11.40
2018-03-25T20:17:29.292Z,11.50
2018-03-25T20:19:33.162Z,11.50
2018-03-25T20:21:37.144Z,11.97
2018-03-25T20:23:40.326Z,11.43
2018-03-25T20:25:44.247Z,11.53
2018-03-25T20:27:48.509Z,10.80
2018-03-25T20:29:52.001Z,11.50
2018-03-25T20:31:56.736Z,10.90
2018-03-25T20:34:00.690Z,11.07
2018-03-25T20:36:03.862Z,9.25
2018-03-25T20:38:07.780Z,9.23
2018-03-25T20:40:10.973Z,9.57
2018-03-25T20:42:14.177Z,9.43
2018-03-25T20:44:17.332Z,9.20
2018-03-25T20:46:21.716Z,8.37
2018-03-25T20:48:24.901Z,8.30
2018-03-25T20:50:28.084Z,10.00
2018-03-25T20:52:32.000Z,9.80
2018-03-25T20:54:37.139Z,11.15
2018-03-25T20:56:40.290Z,9.47
2018-03-25T20:58:43.469Z,9.07
2018-03-25T21:00:47.380Z,9.33
2018-03-25T21:02:50.606Z,9.77
2018-03-25T21:04:53.755Z,9.80
2018-03-25T21:06:58.261Z,9.50
2018-03-25T21:09:02.209Z,10.63
2018-03-25T21:11:05.378Z,9.20
2018-03-25T21:13:09.329Z,8.67
2018-03-25T21:15:12.512Z,9.10
2018-03-25T21:17:15.696Z,9.70
2018-03-25T21:19:18.878Z,8.73
2018-03-25T21:21:22.039Z,8.85
2018-03-25T21:23:25.962Z,8.73
2018-03-25T21:25:29.916Z,8.68
2018-03-25T21:27:33.072Z,10.48
2018-03-25T21:29:36.229Z,9.80
2018-03-25T21:31:39.409Z,8.90
2018-03-25T21:33:42.596Z,9.80
2018-03-25T21:35:45.865Z,8.38
2018-03-25T21:37:49.029Z,8.50
2018-03-25T21:39:52.216Z,9.30
2018-03-25T21:41:55.399Z,8.60
2018-03-25T21:43:58.805Z,9.57
2018-03-25T21:46:01.968Z,9.50
2018-03-25T21:48:05.150Z,9.32
2018-03-25T21:50:08.326Z,9.53
2018-03-25T21:52:11.523Z,10.85
2018-03-25T21:54:14.705Z,10.10
2018-03-25T21:56:19.006Z,9.55
2018-03-25T21:58:22.162Z,9.40
2018-03-25T22:00:26.077Z,9.93
2018-03-25T22:02:30.018Z,9.17
2018-03-25T22:04:33.939Z,8.67
2018-03-25T22:06:38.972Z,8.77
2018-03-25T22:08:42.922Z,8.13
2018-03-25T22:10:46.888Z,8.80
2018-03-25T22:12:50.049Z,8.98
2018-03-25T22:14:53.969Z,9.63
2018-03-25T22:16:57.914Z,9.07
2018-03-25T22:19:01.077Z,9.50
2018-03-25T22:21:04.233Z,8.87
2018-03-25T22:23:07.413Z,9.03
2018-03-25T22:25:11.332Z,9.10
2018-03-25T22:27:14.468Z,8.87
2018-03-25T22:29:17.781Z,9.07
2018-03-25T22:31:20.924Z,8.93
2018-03-25T22:33:24.072Z,8.93
2018-03-25T22:35:28.024Z,10.13
2018-03-25T22:37:31.224Z,9.87
2018-03-25T22:39:34.323Z,9.40
2018-03-25T22:41:38.261Z,9.43
2018-03-25T22:43:41.434Z,9.27
2018-03-25T22:45:44.582Z,10.27
2018-03-25T22:47:47.770Z,10.13
2018-03-25T22:49:51.690Z,10.63
2018-03-25T22:51:55.597Z,9.38
2018-03-25T22:53:58.784Z,10.07
2018-03-25T22:56:01.945Z,10.20
2018-03-25T22:58:05.896Z,10.32
2018-03-25T23:00:09.050Z,10.75
2018-03-25T23:02:13.009Z,10.93
2018-03-25T23:04:16.196Z,11.67
2018-03-25T23:06:21.359Z,10.97
2018-03-25T23:08:25.289Z,11.03
2018-03-25T23:10:29.196Z,11.40
2018-03-25T23:12:32.364Z,11.43
2018-03-25T23:14:35.509Z,10.75
2018-03-25T23:16:38.661Z,10.27
2018-03-25T23:18:41.843Z,11.57
2018-03-25T23:20:45.771Z,11.57
2018-03-25T23:22:49.728Z,10.93
2018-03-25T23:24:52.871Z,10.95
2018-03-25T23:26:56.020Z,11.48
2018-03-25T23:28:59.206Z,9.73
2018-03-25T23:31:03.148Z,10.53
2018-03-25T23:33:07.167Z,10.30
2018-03-25T23:35:11.115Z,10.48
2018-03-25T23:37:14.264Z,11.30
2018-03-25T23:39:17.421Z,11.40
2018-03-25T23:41:21.729Z,10.40
2018-03-25T23:43:26.664Z,10.40
2018-03-25T23:45:29.814Z,11.07
2018-03-25T23:47:32.997Z,11.40
2018-03-25T23:49:36.921Z,10.27
2018-03-25T23:51:40.868Z,10.30
2018-03-25T23:53:44.784Z,10.70
2018-03-25T23:55:48.737Z,10.90
2018-03-25T23:57:51.917Z,9.90
2018-03-25T23:59:55.846Z,10.70
